sensor_id;sensor_type;location;lat;lon;timestamp;temperature;humidity
18934;DHT22;9599;53.706;10.384;2022-10-24T00:01:28;15.60;99.90
18934;DHT22;9599;53.706;10.384;2022-10-24T00:03:56;15.50;99.90
18934;DHT22;9599;53.706;10.384;2022-10-24T00:06:26;15.50;99.90
18934;DHT22;9599;53.706;10.384;2022-10-24T00:08:54;15.50;99.90
18934;DHT22;9599;53.706;10.384;2022-10-24T00:11:24;15.50;99.90
18934;DHT22;9599;53.706;10.384;2022-10-24T00:13:53;15.50;99.90
18934;DHT22;9599;53.706;10.384;2022-10-24T00:16:21;15.40;99.90
18934;DHT22;9599;53.706;10.384;2022-10-24T00:18:49;15.40;99.90
18934;DHT22;9599;53.706;10.384;2022-10-24T00:21:18;15.40;99.90
18934;DHT22;9599;53.706;10.384;2022-10-24T00:23:48;15.40;99.90
18934;DHT22;9599;53.706;10.384;2022-10-24T00:26:16;15.30;99.90
18934;DHT22;9599;53.706;10.384;2022-10-24T00:28:44;15.30;99.90
18934;DHT22;9599;53.706;10.384;2022-10-24T00:31:14;15.30;99.90
18934;DHT22;9599;53.706;10.384;2022-10-24T00:33:43;15.30;99.90
18934;DHT22;9599;53.706;10.384;2022-10-24T00:36:13;15.30;99.90
18934;DHT22;9599;53.706;10.384;2022-10-24T00:38:41;15.30;99.90
18934;DHT22;9599;53.706;10.384;2022-10-24T00:41:13;15.30;99.90
18934;DHT22;9599;53.706;10.384;2022-10-24T00:43:42;15.30;99.90
18934;DHT22;9599;53.706;10.384;2022-10-24T00:46:10;15.20;99.90
18934;DHT22;9599;53.706;10.384;2022-10-24T00:48:40;15.20;99.90
18934;DHT22;9599;53.706;10.384;2022-10-24T00:51:15;15.20;99.90
18934;DHT22;9599;53.706;10.384;2022-10-24T00:53:51;15.20;99.90
18934;DHT22;9599;53.706;10.384;2022-10-24T00:56:22;15.20;99.90
18934;DHT22;9599;53.706;10.384;2022-10-24T00:58:53;15.10;99.90
18934;DHT22;9599;53.706;10.384;2022-10-24T01:01:23;15.20;99.90
18934;DHT22;9599;53.706;10.384;2022-10-24T01:03:51;15.20;99.90
18934;DHT22;9599;53.706;10.384;2022-10-24T01:06:30;15.20;99.90
18934;DHT22;9599;53.706;10.384;2022-10-24T01:09:08;15.20;99.90
18934;DHT22;9599;53.706;10.384;2022-10-24T01:11:52;15.20;99.90
18934;DHT22;9599;53.706;10.384;2022-10-24T01:14:30;15.20;99.90
18934;DHT22;9599;53.706;10.384;2022-10-24T01:17:07;15.20;99.90
18934;DHT22;9599;53.706;10.384;2022-10-24T01:22:47;15.20;99.90
18934;DHT22;9599;53.706;10.384;2022-10-24T01:25:23;15.20;99.90
18934;DHT22;9599;53.706;10.384;2022-10-24T01:28:03;15.20;99.90
18934;DHT22;9599;53.706;10.384;2022-10-24T01:30:40;15.20;99.90
18934;DHT22;9599;53.706;10.384;2022-10-24T01:33:15;15.20;99.90
18934;DHT22;9599;53.706;10.384;2022-10-24T01:35:50;15.20;99.90
18934;DHT22;9599;53.706;10.384;2022-10-24T01:38:23;15.20;99.90
18934;DHT22;9599;53.706;10.384;2022-10-24T01:40:54;15.20;99.90
18934;DHT22;9599;53.706;10.384;2022-10-24T01:43:26;15.20;99.90
18934;DHT22;9599;53.706;10.384;2022-10-24T01:46:01;15.20;99.90
18934;DHT22;9599;53.706;10.384;2022-10-24T01:48:32;15.20;99.90
18934;DHT22;9599;53.706;10.384;2022-10-24T01:51:03;15.20;99.90
18934;DHT22;9599;53.706;10.384;2022-10-24T01:53:31;15.10;99.90
18934;DHT22;9599;53.706;10.384;2022-10-24T01:56:00;15.10;99.90
18934;DHT22;9599;53.706;10.384;2022-10-24T01:58:29;15.10;99.90
18934;DHT22;9599;53.706;10.384;2022-10-24T02:01:02;15.10;99.90
18934;DHT22;9599;53.706;10.384;2022-10-24T02:03:35;15.10;99.90
18934;DHT22;9599;53.706;10.384;2022-10-24T02:06:07;15.10;99.90
18934;DHT22;9599;53.706;10.384;2022-10-24T02:08:41;15.10;99.90
18934;DHT22;9599;53.706;10.384;2022-10-24T02:11:10;15.10;99.90
18934;DHT22;9599;53.706;10.384;2022-10-24T02:13:43;15.00;99.90
18934;DHT22;9599;53.706;10.384;2022-10-24T02:16:17;15.00;99.90
18934;DHT22;9599;53.706;10.384;2022-10-24T02:18:46;14.90;99.90
18934;DHT22;9599;53.706;10.384;2022-10-24T02:21:23;14.90;99.90
18934;DHT22;9599;53.706;10.384;2022-10-24T02:23:56;14.90;99.90
18934;DHT22;9599;53.706;10.384;2022-10-24T02:26:31;14.90;99.90
18934;DHT22;9599;53.706;10.384;2022-10-24T02:29:03;14.90;99.90
18934;DHT22;9599;53.706;10.384;2022-10-24T02:31:38;14.90;99.90
18934;DHT22;9599;53.706;10.384;2022-10-24T02:34:08;14.80;99.90
18934;DHT22;9599;53.706;10.384;2022-10-24T02:36:39;14.80;99.90
18934;DHT22;9599;53.706;10.384;2022-10-24T02:39:09;14.80;99.90
18934;DHT22;9599;53.706;10.384;2022-10-24T02:41:40;14.80;99.90
18934;DHT22;9599;53.706;10.384;2022-10-24T02:44:11;14.80;99.90
18934;DHT22;9599;53.706;10.384;2022-10-24T02:46:42;14.70;99.90
18934;DHT22;9599;53.706;10.384;2022-10-24T02:49:12;14.70;99.90
18934;DHT22;9599;53.706;10.384;2022-10-24T02:51:42;14.70;99.90
18934;DHT22;9599;53.706;10.384;2022-10-24T02:54:11;14.60;99.90
18934;DHT22;9599;53.706;10.384;2022-10-24T02:56:42;14.70;99.90
18934;DHT22;9599;53.706;10.384;2022-10-24T02:59:12;14.60;99.90
18934;DHT22;9599;53.706;10.384;2022-10-24T03:01:42;14.60;99.90
18934;DHT22;9599;53.706;10.384;2022-10-24T03:04:10;14.60;99.90
18934;DHT22;9599;53.706;10.384;2022-10-24T03:06:38;14.60;99.90
18934;DHT22;9599;53.706;10.384;2022-10-24T03:09:06;14.60;99.90
18934;DHT22;9599;53.706;10.384;2022-10-24T03:11:34;14.60;99.90
18934;DHT22;9599;53.706;10.384;2022-10-24T03:14:02;14.60;99.90
18934;DHT22;9599;53.706;10.384;2022-10-24T03:16:30;14.60;99.90
18934;DHT22;9599;53.706;10.384;2022-10-24T03:19:00;14.60;99.90
18934;DHT22;9599;53.706;10.384;2022-10-24T03:21:27;14.60;99.90
18934;DHT22;9599;53.706;10.384;2022-10-24T03:23:55;14.50;99.90
18934;DHT22;9599;53.706;10.384;2022-10-24T03:26:23;14.50;99.90
18934;DHT22;9599;53.706;10.384;2022-10-24T03:28:51;14.50;99.90
18934;DHT22;9599;53.706;10.384;2022-10-24T03:31:19;14.50;99.90
18934;DHT22;9599;53.706;10.384;2022-10-24T03:33:47;14.50;99.90
18934;DHT22;9599;53.706;10.384;2022-10-24T03:36:17;14.50;99.90
18934;DHT22;9599;53.706;10.384;2022-10-24T03:38:45;14.50;99.90
18934;DHT22;9599;53.706;10.384;2022-10-24T03:41:13;14.50;99.90
18934;DHT22;9599;53.706;10.384;2022-10-24T03:43:41;14.50;99.90
18934;DHT22;9599;53.706;10.384;2022-10-24T03:46:09;14.50;99.90
18934;DHT22;9599;53.706;10.384;2022-10-24T03:48:37;14.50;99.90
18934;DHT22;9599;53.706;10.384;2022-10-24T03:51:05;14.50;99.90
18934;DHT22;9599;53.706;10.384;2022-10-24T03:53:34;14.50;99.90
18934;DHT22;9599;53.706;10.384;2022-10-24T03:56:03;14.50;99.90
18934;DHT22;9599;53.706;10.384;2022-10-24T03:58:31;14.40;99.90
18934;DHT22;9599;53.706;10.384;2022-10-24T04:00:59;14.50;99.90
18934;DHT22;9599;53.706;10.384;2022-10-24T04:03:27;14.50;99.90
18934;DHT22;9599;53.706;10.384;2022-10-24T04:05:55;14.40;99.90
18934;DHT22;9599;53.706;10.384;2022-10-24T04:08:23;14.40;99.90
18934;DHT22;9599;53.706;10.384;2022-10-24T04:10:53;14.40;99.90
18934;DHT22;9599;53.706;10.384;2022-10-24T04:13:21;14.40;99.90
18934;DHT22;9599;53.706;10.384;2022-10-24T04:15:49;14.40;99.90
18934;DHT22;9599;53.706;10.384;2022-10-24T04:18:17;14.40;99.90
18934;DHT22;9599;53.706;10.384;2022-10-24T04:20:45;14.40;99.90
18934;DHT22;9599;53.706;10.384;2022-10-24T04:23:13;14.30;99.90
18934;DHT22;9599;53.706;10.384;2022-10-24T04:25:43;14.30;99.90
18934;DHT22;9599;53.706;10.384;2022-10-24T04:28:12;14.40;99.90
18934;DHT22;9599;53.706;10.384;2022-10-24T04:30:40;14.30;99.90
18934;DHT22;9599;53.706;10.384;2022-10-24T04:33:09;14.30;99.90
18934;DHT22;9599;53.706;10.384;2022-10-24T04:35:37;14.30;99.90
18934;DHT22;9599;53.706;10.384;2022-10-24T04:38:05;14.20;99.90
18934;DHT22;9599;53.706;10.384;2022-10-24T04:40:33;14.20;99.90
18934;DHT22;9599;53.706;10.384;2022-10-24T04:43:01;14.20;99.90
18934;DHT22;9599;53.706;10.384;2022-10-24T04:45:30;14.20;99.90
18934;DHT22;9599;53.706;10.384;2022-10-24T04:47:58;14.20;99.90
18934;DHT22;9599;53.706;10.384;2022-10-24T04:50:26;14.20;99.90
18934;DHT22;9599;53.706;10.384;2022-10-24T04:52:54;14.20;99.90
18934;DHT22;9599;53.706;10.384;2022-10-24T04:55:22;14.20;99.90
18934;DHT22;9599;53.706;10.384;2022-10-24T04:57:50;14.30;99.90
18934;DHT22;9599;53.706;10.384;2022-10-24T05:00:18;14.30;99.90
18934;DHT22;9599;53.706;10.384;2022-10-24T05:02:47;14.30;99.90
18934;DHT22;9599;53.706;10.384;2022-10-24T05:05:18;14.20;99.90
18934;DHT22;9599;53.706;10.384;2022-10-24T05:07:47;14.20;99.90
18934;DHT22;9599;53.706;10.384;2022-10-24T05:10:15;14.20;99.90
18934;DHT22;9599;53.706;10.384;2022-10-24T05:12:43;14.20;99.90
18934;DHT22;9599;53.706;10.384;2022-10-24T05:15:11;14.10;99.90
18934;DHT22;9599;53.706;10.384;2022-10-24T05:17:40;14.20;99.90
18934;DHT22;9599;53.706;10.384;2022-10-24T05:20:10;14.10;99.90
18934;DHT22;9599;53.706;10.384;2022-10-24T05:22:38;14.10;99.90
18934;DHT22;9599;53.706;10.384;2022-10-24T05:25:07;14.10;99.90
18934;DHT22;9599;53.706;10.384;2022-10-24T05:27:35;14.10;99.90
18934;DHT22;9599;53.706;10.384;2022-10-24T05:30:04;14.10;99.90
18934;DHT22;9599;53.706;10.384;2022-10-24T05:32:32;14.10;99.90
18934;DHT22;9599;53.706;10.384;2022-10-24T05:35:06;14.00;99.90
18934;DHT22;9599;53.706;10.384;2022-10-24T05:37:36;14.00;99.90
18934;DHT22;9599;53.706;10.384;2022-10-24T05:40:06;14.00;99.90
18934;DHT22;9599;53.706;10.384;2022-10-24T05:42:35;14.00;99.90
18934;DHT22;9599;53.706;10.384;2022-10-24T05:45:05;14.00;99.90
18934;DHT22;9599;53.706;10.384;2022-10-24T05:47:33;14.00;99.90
18934;DHT22;9599;53.706;10.384;2022-10-24T05:50:01;14.00;99.90
18934;DHT22;9599;53.706;10.384;2022-10-24T05:52:30;14.00;99.90
18934;DHT22;9599;53.706;10.384;2022-10-24T05:54:59;14.00;99.90
18934;DHT22;9599;53.706;10.384;2022-10-24T05:57:34;14.00;99.90
18934;DHT22;9599;53.706;10.384;2022-10-24T06:00:04;14.00;99.90
18934;DHT22;9599;53.706;10.384;2022-10-24T06:02:37;14.00;99.90
18934;DHT22;9599;53.706;10.384;2022-10-24T06:05:06;14.00;99.90
18934;DHT22;9599;53.706;10.384;2022-10-24T06:07:35;14.00;99.90
18934;DHT22;9599;53.706;10.384;2022-10-24T06:10:05;14.00;99.90
18934;DHT22;9599;53.706;10.384;2022-10-24T06:12:33;14.00;99.90
18934;DHT22;9599;53.706;10.384;2022-10-24T06:15:04;14.00;99.90
18934;DHT22;9599;53.706;10.384;2022-10-24T06:17:32;14.00;99.90
18934;DHT22;9599;53.706;10.384;2022-10-24T06:20:00;14.00;99.90
18934;DHT22;9599;53.706;10.384;2022-10-24T06:22:28;14.00;99.90
18934;DHT22;9599;53.706;10.384;2022-10-24T06:24:56;14.00;99.90
18934;DHT22;9599;53.706;10.384;2022-10-24T06:27:27;14.00;99.90
18934;DHT22;9599;53.706;10.384;2022-10-24T06:29:56;14.00;99.90
18934;DHT22;9599;53.706;10.384;2022-10-24T06:32:24;14.00;99.90
18934;DHT22;9599;53.706;10.384;2022-10-24T06:34:52;14.00;99.90
18934;DHT22;9599;53.706;10.384;2022-10-24T06:37:20;14.00;99.90
18934;DHT22;9599;53.706;10.384;2022-10-24T06:39:48;14.10;99.90
18934;DHT22;9599;53.706;10.384;2022-10-24T06:42:16;14.00;99.90
18934;DHT22;9599;53.706;10.384;2022-10-24T06:44:45;14.10;99.90
18934;DHT22;9599;53.706;10.384;2022-10-24T06:47:13;14.10;99.90
18934;DHT22;9599;53.706;10.384;2022-10-24T06:49:41;14.10;99.90
18934;DHT22;9599;53.706;10.384;2022-10-24T06:52:09;14.10;99.90
18934;DHT22;9599;53.706;10.384;2022-10-24T06:54:37;14.20;99.90
18934;DHT22;9599;53.706;10.384;2022-10-24T06:57:06;14.20;99.90
18934;DHT22;9599;53.706;10.384;2022-10-24T06:59:34;14.20;99.90
18934;DHT22;9599;53.706;10.384;2022-10-24T07:02:04;14.20;99.90
18934;DHT22;9599;53.706;10.384;2022-10-24T07:04:32;14.20;99.90
18934;DHT22;9599;53.706;10.384;2022-10-24T07:07:00;14.20;99.90
18934;DHT22;9599;53.706;10.384;2022-10-24T07:09:28;14.20;99.90
18934;DHT22;9599;53.706;10.384;2022-10-24T07:11:56;14.20;99.90
18934;DHT22;9599;53.706;10.384;2022-10-24T07:14:25;14.30;99.90
18934;DHT22;9599;53.706;10.384;2022-10-24T07:16:53;14.20;99.90
18934;DHT22;9599;53.706;10.384;2022-10-24T07:19:23;14.30;99.90
18934;DHT22;9599;53.706;10.384;2022-10-24T07:21:51;14.30;99.90
18934;DHT22;9599;53.706;10.384;2022-10-24T07:24:19;14.30;99.90
18934;DHT22;9599;53.706;10.384;2022-10-24T07:26:48;14.30;99.90
18934;DHT22;9599;53.706;10.384;2022-10-24T07:29:16;14.30;99.90
18934;DHT22;9599;53.706;10.384;2022-10-24T07:31:45;14.40;99.90
18934;DHT22;9599;53.706;10.384;2022-10-24T07:34:14;14.40;99.90
18934;DHT22;9599;53.706;10.384;2022-10-24T07:36:44;14.40;99.90
18934;DHT22;9599;53.706;10.384;2022-10-24T07:39:12;14.50;99.90
18934;DHT22;9599;53.706;10.384;2022-10-24T07:41:40;14.50;99.90
18934;DHT22;9599;53.706;10.384;2022-10-24T07:44:09;14.60;99.90
18934;DHT22;9599;53.706;10.384;2022-10-24T07:46:39;14.70;99.90
18934;DHT22;9599;53.706;10.384;2022-10-24T07:49:08;14.80;99.90
18934;DHT22;9599;53.706;10.384;2022-10-24T07:51:36;14.80;99.90
18934;DHT22;9599;53.706;10.384;2022-10-24T07:54:05;14.80;99.90
18934;DHT22;9599;53.706;10.384;2022-10-24T07:56:34;14.80;99.90
18934;DHT22;9599;53.706;10.384;2022-10-24T07:59:02;14.90;99.90
18934;DHT22;9599;53.706;10.384;2022-10-24T08:01:35;14.90;99.90
18934;DHT22;9599;53.706;10.384;2022-10-24T08:04:03;15.00;99.90
18934;DHT22;9599;53.706;10.384;2022-10-24T08:06:32;15.20;99.90
18934;DHT22;9599;53.706;10.384;2022-10-24T08:09:00;15.30;99.90
18934;DHT22;9599;53.706;10.384;2022-10-24T08:11:31;15.30;99.90
18934;DHT22;9599;53.706;10.384;2022-10-24T08:14:00;15.40;99.90
18934;DHT22;9599;53.706;10.384;2022-10-24T08:16:28;15.50;99.90
18934;DHT22;9599;53.706;10.384;2022-10-24T08:18:57;15.60;99.90
18934;DHT22;9599;53.706;10.384;2022-10-24T08:21:25;15.70;99.90
18934;DHT22;9599;53.706;10.384;2022-10-24T08:23:54;15.80;99.90
18934;DHT22;9599;53.706;10.384;2022-10-24T08:26:24;16.00;99.90
18934;DHT22;9599;53.706;10.384;2022-10-24T08:28:54;16.10;99.90
18934;DHT22;9599;53.706;10.384;2022-10-24T08:31:24;16.20;99.90
18934;DHT22;9599;53.706;10.384;2022-10-24T08:33:53;16.20;99.90
18934;DHT22;9599;53.706;10.384;2022-10-24T08:36:24;16.30;99.90
18934;DHT22;9599;53.706;10.384;2022-10-24T08:38:52;16.40;99.90
18934;DHT22;9599;53.706;10.384;2022-10-24T08:41:26;16.50;99.90
18934;DHT22;9599;53.706;10.384;2022-10-24T08:43:57;16.50;99.90
18934;DHT22;9599;53.706;10.384;2022-10-24T08:46:40;16.60;99.90
18934;DHT22;9599;53.706;10.384;2022-10-24T08:49:28;16.70;99.90
18934;DHT22;9599;53.706;10.384;2022-10-24T08:52:00;16.70;99.90
18934;DHT22;9599;53.706;10.384;2022-10-24T08:54:31;16.90;99.90
18934;DHT22;9599;53.706;10.384;2022-10-24T08:57:02;16.90;99.90
18934;DHT22;9599;53.706;10.384;2022-10-24T08:59:33;17.00;99.90
18934;DHT22;9599;53.706;10.384;2022-10-24T09:02:11;17.00;99.90
18934;DHT22;9599;53.706;10.384;2022-10-24T09:04:44;17.00;99.90
18934;DHT22;9599;53.706;10.384;2022-10-24T09:07:16;17.10;99.90
18934;DHT22;9599;53.706;10.384;2022-10-24T09:09:46;17.10;99.90
18934;DHT22;9599;53.706;10.384;2022-10-24T09:12:16;17.20;99.90
18934;DHT22;9599;53.706;10.384;2022-10-24T09:14:51;17.30;99.90
18934;DHT22;9599;53.706;10.384;2022-10-24T09:17:22;17.40;99.90
18934;DHT22;9599;53.706;10.384;2022-10-24T09:19:52;17.40;99.90
18934;DHT22;9599;53.706;10.384;2022-10-24T09:22:21;17.40;99.90
18934;DHT22;9599;53.706;10.384;2022-10-24T09:24:52;17.40;99.90
18934;DHT22;9599;53.706;10.384;2022-10-24T09:27:25;17.40;99.90
18934;DHT22;9599;53.706;10.384;2022-10-24T09:29:57;17.40;99.90
18934;DHT22;9599;53.706;10.384;2022-10-24T09:32:27;17.40;99.90
18934;DHT22;9599;53.706;10.384;2022-10-24T09:34:58;17.50;99.90
18934;DHT22;9599;53.706;10.384;2022-10-24T09:37:33;17.40;99.90
18934;DHT22;9599;53.706;10.384;2022-10-24T09:40:17;17.50;99.90
18934;DHT22;9599;53.706;10.384;2022-10-24T09:42:49;17.70;99.90
18934;DHT22;9599;53.706;10.384;2022-10-24T09:45:32;17.80;99.90
18934;DHT22;9599;53.706;10.384;2022-10-24T09:48:04;17.90;99.90
18934;DHT22;9599;53.706;10.384;2022-10-24T09:50:34;18.00;99.90
18934;DHT22;9599;53.706;10.384;2022-10-24T09:53:03;18.10;99.90
18934;DHT22;9599;53.706;10.384;2022-10-24T09:55:42;18.20;99.90
18934;DHT22;9599;53.706;10.384;2022-10-24T09:58:17;18.30;99.90
18934;DHT22;9599;53.706;10.384;2022-10-24T10:00:56;18.20;99.90
18934;DHT22;9599;53.706;10.384;2022-10-24T10:03:24;18.20;99.90
18934;DHT22;9599;53.706;10.384;2022-10-24T10:05:54;18.00;99.90
18934;DHT22;9599;53.706;10.384;2022-10-24T10:08:24;18.00;99.90
18934;DHT22;9599;53.706;10.384;2022-10-24T10:10:59;18.10;99.90
18934;DHT22;9599;53.706;10.384;2022-10-24T10:13:29;18.10;99.90
18934;DHT22;9599;53.706;10.384;2022-10-24T10:16:00;18.10;99.90
18934;DHT22;9599;53.706;10.384;2022-10-24T10:18:32;18.20;99.90
18934;DHT22;9599;53.706;10.384;2022-10-24T10:21:08;18.20;99.90
18934;DHT22;9599;53.706;10.384;2022-10-24T10:23:39;18.30;99.90
18934;DHT22;9599;53.706;10.384;2022-10-24T10:26:13;18.40;99.90
18934;DHT22;9599;53.706;10.384;2022-10-24T10:28:46;18.50;99.90
18934;DHT22;9599;53.706;10.384;2022-10-24T10:31:18;18.50;99.90
18934;DHT22;9599;53.706;10.384;2022-10-24T10:34:02;18.70;99.90
18934;DHT22;9599;53.706;10.384;2022-10-24T10:36:37;18.90;99.90
18934;DHT22;9599;53.706;10.384;2022-10-24T10:39:25;18.90;99.90
18934;DHT22;9599;53.706;10.384;2022-10-24T10:42:02;18.90;99.90
18934;DHT22;9599;53.706;10.384;2022-10-24T10:44:42;18.80;99.90
18934;DHT22;9599;53.706;10.384;2022-10-24T10:47:25;18.80;99.90
18934;DHT22;9599;53.706;10.384;2022-10-24T10:50:03;18.80;99.90
18934;DHT22;9599;53.706;10.384;2022-10-24T10:52:43;18.80;99.90
18934;DHT22;9599;53.706;10.384;2022-10-24T10:55:24;18.90;99.90
18934;DHT22;9599;53.706;10.384;2022-10-24T10:58:01;18.90;99.90
18934;DHT22;9599;53.706;10.384;2022-10-24T11:00:43;19.00;99.90
18934;DHT22;9599;53.706;10.384;2022-10-24T11:03:31;19.00;99.90
18934;DHT22;9599;53.706;10.384;2022-10-24T11:06:13;19.10;99.90
18934;DHT22;9599;53.706;10.384;2022-10-24T11:11:43;19.00;99.90
18934;DHT22;9599;53.706;10.384;2022-10-24T11:14:21;18.90;99.90
18934;DHT22;9599;53.706;10.384;2022-10-24T11:16:56;18.90;99.90
18934;DHT22;9599;53.706;10.384;2022-10-24T11:19:31;18.80;99.90
18934;DHT22;9599;53.706;10.384;2022-10-24T11:22:02;18.70;99.90
18934;DHT22;9599;53.706;10.384;2022-10-24T11:24:36;18.80;99.90
18934;DHT22;9599;53.706;10.384;2022-10-24T11:27:08;18.90;99.90
18934;DHT22;9599;53.706;10.384;2022-10-24T11:29:42;18.80;99.90
18934;DHT22;9599;53.706;10.384;2022-10-24T11:32:19;18.80;99.90
18934;DHT22;9599;53.706;10.384;2022-10-24T11:34:55;18.90;99.90
18934;DHT22;9599;53.706;10.384;2022-10-24T11:37:28;18.90;99.90
18934;DHT22;9599;53.706;10.384;2022-10-24T11:40:02;18.90;99.90
18934;DHT22;9599;53.706;10.384;2022-10-24T11:42:36;18.90;99.90
18934;DHT22;9599;53.706;10.384;2022-10-24T11:45:11;19.00;99.90
18934;DHT22;9599;53.706;10.384;2022-10-24T11:47:49;19.10;99.90
18934;DHT22;9599;53.706;10.384;2022-10-24T11:50:26;19.10;99.90
18934;DHT22;9599;53.706;10.384;2022-10-24T11:52:57;19.10;99.90
18934;DHT22;9599;53.706;10.384;2022-10-24T11:55:28;19.10;99.90
18934;DHT22;9599;53.706;10.384;2022-10-24T11:58:04;19.10;99.90
18934;DHT22;9599;53.706;10.384;2022-10-24T12:00:53;19.30;99.90
18934;DHT22;9599;53.706;10.384;2022-10-24T12:03:39;19.30;99.90
18934;DHT22;9599;53.706;10.384;2022-10-24T12:06:37;19.30;99.90
18934;DHT22;9599;53.706;10.384;2022-10-24T12:09:36;19.20;99.90
18934;DHT22;9599;53.706;10.384;2022-10-24T12:12:17;19.00;99.90
18934;DHT22;9599;53.706;10.384;2022-10-24T12:15:01;19.00;99.90
18934;DHT22;9599;53.706;10.384;2022-10-24T12:17:53;19.00;99.90
18934;DHT22;9599;53.706;10.384;2022-10-24T12:20:24;19.00;99.90
18934;DHT22;9599;53.706;10.384;2022-10-24T12:22:55;19.00;99.90
18934;DHT22;9599;53.706;10.384;2022-10-24T12:25:28;19.00;99.90
18934;DHT22;9599;53.706;10.384;2022-10-24T12:28:00;18.90;99.90
18934;DHT22;9599;53.706;10.384;2022-10-24T12:30:30;18.90;99.90
18934;DHT22;9599;53.706;10.384;2022-10-24T12:33:08;18.90;99.90
18934;DHT22;9599;53.706;10.384;2022-10-24T12:35:55;18.80;99.90
18934;DHT22;9599;53.706;10.384;2022-10-24T12:41:38;18.70;99.90
18934;DHT22;9599;53.706;10.384;2022-10-24T12:47:36;18.90;99.90
18934;DHT22;9599;53.706;10.384;2022-10-24T12:53:17;18.80;99.90
18934;DHT22;9599;53.706;10.384;2022-10-24T12:56:10;18.70;99.90
18934;DHT22;9599;53.706;10.384;2022-10-24T12:58:42;18.60;99.90
18934;DHT22;9599;53.706;10.384;2022-10-24T13:01:22;18.60;99.90
18934;DHT22;9599;53.706;10.384;2022-10-24T13:07:27;18.40;99.90
18934;DHT22;9599;53.706;10.384;2022-10-24T13:13:02;18.40;99.90
18934;DHT22;9599;53.706;10.384;2022-10-24T13:15:41;18.50;99.90
18934;DHT22;9599;53.706;10.384;2022-10-24T13:18:27;18.40;99.90
18934;DHT22;9599;53.706;10.384;2022-10-24T13:21:13;18.50;99.90
18934;DHT22;9599;53.706;10.384;2022-10-24T13:23:42;18.50;99.90
18934;DHT22;9599;53.706;10.384;2022-10-24T13:26:40;18.40;99.90
18934;DHT22;9599;53.706;10.384;2022-10-24T13:29:14;18.50;99.90
18934;DHT22;9599;53.706;10.384;2022-10-24T13:31:47;18.60;99.90
18934;DHT22;9599;53.706;10.384;2022-10-24T13:34:23;18.70;99.90
18934;DHT22;9599;53.706;10.384;2022-10-24T13:37:03;18.70;99.90
18934;DHT22;9599;53.706;10.384;2022-10-24T13:39:35;18.70;99.90
18934;DHT22;9599;53.706;10.384;2022-10-24T13:42:24;18.70;99.90
18934;DHT22;9599;53.706;10.384;2022-10-24T13:44:58;18.80;99.90
18934;DHT22;9599;53.706;10.384;2022-10-24T13:47:32;18.90;99.90
18934;DHT22;9599;53.706;10.384;2022-10-24T13:50:04;18.90;99.90
18934;DHT22;9599;53.706;10.384;2022-10-24T13:52:38;18.80;99.90
18934;DHT22;9599;53.706;10.384;2022-10-24T13:55:21;18.80;99.90
18934;DHT22;9599;53.706;10.384;2022-10-24T13:57:58;18.70;99.90
18934;DHT22;9599;53.706;10.384;2022-10-24T14:00:27;18.60;99.90
18934;DHT22;9599;53.706;10.384;2022-10-24T14:02:57;18.50;99.90
18934;DHT22;9599;53.706;10.384;2022-10-24T14:05:31;18.50;99.90
18934;DHT22;9599;53.706;10.384;2022-10-24T14:08:00;18.50;99.90
18934;DHT22;9599;53.706;10.384;2022-10-24T14:10:29;18.40;99.90
18934;DHT22;9599;53.706;10.384;2022-10-24T14:12:58;18.30;99.90
18934;DHT22;9599;53.706;10.384;2022-10-24T14:15:29;18.40;99.90
18934;DHT22;9599;53.706;10.384;2022-10-24T14:18:00;18.30;99.90
18934;DHT22;9599;53.706;10.384;2022-10-24T14:20:30;18.30;99.90
18934;DHT22;9599;53.706;10.384;2022-10-24T14:22:59;18.40;99.90
18934;DHT22;9599;53.706;10.384;2022-10-24T14:25:30;18.40;99.90
18934;DHT22;9599;53.706;10.384;2022-10-24T14:28:02;18.50;99.90
18934;DHT22;9599;53.706;10.384;2022-10-24T14:30:30;18.70;99.90
18934;DHT22;9599;53.706;10.384;2022-10-24T14:33:19;18.70;99.90
18934;DHT22;9599;53.706;10.384;2022-10-24T14:35:47;18.70;99.90
18934;DHT22;9599;53.706;10.384;2022-10-24T14:38:21;18.50;99.90
18934;DHT22;9599;53.706;10.384;2022-10-24T14:40:50;18.40;99.90
18934;DHT22;9599;53.706;10.384;2022-10-24T14:43:35;18.30;99.90
18934;DHT22;9599;53.706;10.384;2022-10-24T14:46:22;18.30;99.90
18934;DHT22;9599;53.706;10.384;2022-10-24T14:48:53;18.10;99.90
18934;DHT22;9599;53.706;10.384;2022-10-24T14:51:26;18.10;99.90
18934;DHT22;9599;53.706;10.384;2022-10-24T14:53:55;18.00;99.90
18934;DHT22;9599;53.706;10.384;2022-10-24T14:56:27;18.00;99.90
18934;DHT22;9599;53.706;10.384;2022-10-24T14:58:58;18.00;99.90
18934;DHT22;9599;53.706;10.384;2022-10-24T15:01:26;18.00;99.90
18934;DHT22;9599;53.706;10.384;2022-10-24T15:03:57;18.00;99.90
18934;DHT22;9599;53.706;10.384;2022-10-24T15:06:28;18.00;99.90
18934;DHT22;9599;53.706;10.384;2022-10-24T15:09:05;18.00;99.90
18934;DHT22;9599;53.706;10.384;2022-10-24T15:11:42;18.00;99.90
18934;DHT22;9599;53.706;10.384;2022-10-24T15:14:30;18.00;99.90
18934;DHT22;9599;53.706;10.384;2022-10-24T15:16:59;18.00;99.90
18934;DHT22;9599;53.706;10.384;2022-10-24T15:19:36;17.90;99.90
18934;DHT22;9599;53.706;10.384;2022-10-24T15:22:04;17.80;99.90
18934;DHT22;9599;53.706;10.384;2022-10-24T15:24:32;17.80;99.90
18934;DHT22;9599;53.706;10.384;2022-10-24T15:27:10;17.80;99.90
18934;DHT22;9599;53.706;10.384;2022-10-24T15:29:39;17.80;99.90
18934;DHT22;9599;53.706;10.384;2022-10-24T15:32:08;17.70;99.90
18934;DHT22;9599;53.706;10.384;2022-10-24T15:34:38;17.60;99.90
18934;DHT22;9599;53.706;10.384;2022-10-24T15:37:16;17.60;99.90
18934;DHT22;9599;53.706;10.384;2022-10-24T15:39:44;17.60;99.90
18934;DHT22;9599;53.706;10.384;2022-10-24T15:42:12;17.50;99.90
18934;DHT22;9599;53.706;10.384;2022-10-24T15:44:45;17.40;99.90
18934;DHT22;9599;53.706;10.384;2022-10-24T15:47:14;17.40;99.90
18934;DHT22;9599;53.706;10.384;2022-10-24T15:49:43;17.40;99.90
18934;DHT22;9599;53.706;10.384;2022-10-24T15:52:14;17.30;99.90
18934;DHT22;9599;53.706;10.384;2022-10-24T15:54:42;17.30;99.90
18934;DHT22;9599;53.706;10.384;2022-10-24T15:57:11;17.30;99.90
18934;DHT22;9599;53.706;10.384;2022-10-24T15:59:39;17.20;99.90
18934;DHT22;9599;53.706;10.384;2022-10-24T16:02:14;17.10;99.90
18934;DHT22;9599;53.706;10.384;2022-10-24T16:04:43;17.00;99.90
18934;DHT22;9599;53.706;10.384;2022-10-24T16:07:11;17.00;99.90
18934;DHT22;9599;53.706;10.384;2022-10-24T16:09:40;17.00;99.90
18934;DHT22;9599;53.706;10.384;2022-10-24T16:12:10;17.00;99.90
18934;DHT22;9599;53.706;10.384;2022-10-24T16:14:38;16.90;99.90
18934;DHT22;9599;53.706;10.384;2022-10-24T16:17:06;16.80;99.90
18934;DHT22;9599;53.706;10.384;2022-10-24T16:19:34;16.70;99.90
18934;DHT22;9599;53.706;10.384;2022-10-24T16:22:03;16.70;99.90